Applegate, Michigan
Current Conditions -  °F | °C
As of 5:00 PM on Wednesday 28 Jan 2015 (Local Time) from CYZR Reporting Station
Scattered Clouds Scattered Clouds  
Wind Chill: 12°   Ceiling: Unl
Heat Index: 23°   Visibility: 9mi
Dew Point: 12°   Wind: 10mph
Humidity: 63%   Direction: 180°S
Pressure: 30.27"   Gusts: NA
Location:  43.36°N, 82.64°W
Report Text: CYZR 282200Z AUTO 18009KT 9SM SCT240 M05/M11 A3027 RMK SLP264
Loading
Personal Weather Stations






























Interactive Weather Map New forecast layout! Learn more

10-Day Weather Forecast

Advertisements
Track Severe Weather on mobile